createdAt,value
2022-09-09T00:00:40.442Z,81
2022-09-09T00:01:46.712Z,81
2022-09-09T00:02:52.998Z,80.5
2022-09-09T00:03:59.258Z,80.5
2022-09-09T00:05:04.557Z,81
2022-09-09T00:06:09.877Z,81.5
2022-09-09T00:07:16.144Z,81.5
2022-09-09T00:08:22.385Z,81.5
2022-09-09T00:09:27.701Z,81.5
2022-09-09T00:10:32.977Z,81.5
2022-09-09T00:11:39.266Z,81
2022-09-09T00:12:45.520Z,81
2022-09-09T00:13:51.837Z,81
2022-09-09T00:14:58.089Z,80.5
2022-09-09T00:16:04.335Z,80.5
2022-09-09T00:17:10.610Z,80.5
2022-09-09T00:18:16.883Z,80.5
2022-09-09T00:19:23.148Z,80.5
2022-09-09T00:20:29.425Z,81
2022-09-09T00:21:35.688Z,80.5
2022-09-09T00:22:42.044Z,80.5
2022-09-09T00:23:48.238Z,80.5
2022-09-09T00:24:53.593Z,81
2022-09-09T00:25:59.812Z,81
2022-09-09T00:27:06.075Z,81
2022-09-09T00:28:12.363Z,81
2022-09-09T00:29:18.614Z,81
2022-09-09T00:30:24.885Z,81
2022-09-09T00:31:31.178Z,80.5
2022-09-09T00:32:37.440Z,81
2022-09-09T00:33:43.699Z,81
2022-09-09T00:34:49.975Z,81
2022-09-09T00:35:56.246Z,81.5
2022-09-09T00:37:02.527Z,81
2022-09-09T00:38:08.787Z,81.5
2022-09-09T00:39:14.075Z,81
2022-09-09T00:40:20.383Z,81.5
2022-09-09T00:41:26.655Z,82
2022-09-09T00:42:32.889Z,82.5
2022-09-09T00:43:38.220Z,82.5
2022-09-09T00:44:43.481Z,83
2022-09-09T00:45:48.788Z,83
2022-09-09T00:46:54.128Z,83
2022-09-09T00:48:00.353Z,83
2022-09-09T00:49:06.617Z,82.5
2022-09-09T00:50:12.887Z,83
2022-09-09T00:51:19.158Z,82.5
2022-09-09T00:52:25.424Z,82.5
2022-09-09T00:53:31.707Z,82
2022-09-09T00:54:37.968Z,82
2022-09-09T00:55:44.246Z,82
2022-09-09T00:56:50.517Z,82
2022-09-09T00:57:56.842Z,82
2022-09-09T00:59:03.116Z,82
2022-09-09T01:00:09.339Z,84
2022-09-09T01:01:14.623Z,83.5
2022-09-09T01:02:20.887Z,84
2022-09-09T01:03:27.160Z,84.5
2022-09-09T01:04:33.473Z,85.5
2022-09-09T01:05:39.734Z,86
2022-09-09T01:06:45.981Z,86
2022-09-09T01:07:52.257Z,86
2022-09-09T01:08:58.519Z,86
2022-09-09T01:10:03.818Z,86
2022-09-09T01:11:09.109Z,86
2022-09-09T01:12:15.389Z,86
2022-09-09T01:13:21.660Z,85.5
2022-09-09T01:14:27.018Z,85.5
2022-09-09T01:15:32.239Z,85
2022-09-09T01:16:38.517Z,85
2022-09-09T01:17:44.854Z,84.5
2022-09-09T01:18:51.128Z,84
2022-09-09T01:19:57.328Z,84
2022-09-09T01:21:03.603Z,83.5
2022-09-09T01:22:09.867Z,83
2022-09-09T01:23:16.144Z,83
2022-09-09T01:24:22.412Z,82.5
2022-09-09T01:25:28.692Z,82.5
2022-09-09T01:26:34.973Z,83
2022-09-09T01:27:41.232Z,82.5
2022-09-09T01:28:47.540Z,82.5
2022-09-09T01:29:52.794Z,82.5
2022-09-09T01:30:59.122Z,82.5
2022-09-09T01:32:05.460Z,82.5
2022-09-09T01:33:11.616Z,82.5
2022-09-09T01:34:17.909Z,82.5
2022-09-09T01:35:24.156Z,82
2022-09-09T01:36:30.431Z,82
2022-09-09T01:37:35.722Z,82
2022-09-09T01:38:41.022Z,82
2022-09-09T01:39:46.320Z,82
2022-09-09T01:40:52.597Z,82
2022-09-09T01:41:57.889Z,82
2022-09-09T01:43:04.155Z,82
2022-09-09T01:44:10.430Z,81.5
2022-09-09T01:45:16.696Z,81.5
2022-09-09T01:46:22.961Z,81.5
2022-09-09T01:47:29.233Z,81.5
2022-09-09T01:48:35.558Z,81.5
2022-09-09T01:49:41.786Z,81.5
2022-09-09T01:50:48.054Z,81.5
2022-09-09T01:51:54.320Z,81.5
2022-09-09T01:52:59.620Z,81.5
2022-09-09T01:54:05.890Z,81.5
2022-09-09T01:55:12.160Z,81
2022-09-09T01:56:18.440Z,81
2022-09-09T01:57:24.749Z,81.5
2022-09-09T01:58:30.977Z,81.5
2022-09-09T01:59:37.268Z,82
2022-09-09T02:00:43.553Z,82
2022-09-09T02:01:49.826Z,82.5
2022-09-09T02:02:55.107Z,82.5
2022-09-09T02:04:00.452Z,82.5
2022-09-09T02:05:06.657Z,83
2022-09-09T02:06:11.972Z,83
2022-09-09T02:07:17.241Z,83
2022-09-09T02:08:23.526Z,83
2022-09-09T02:09:29.785Z,83
2022-09-09T02:10:36.072Z,83
2022-09-09T02:11:42.341Z,83
2022-09-09T02:12:48.612Z,82.5
2022-09-09T02:13:54.874Z,82.5
2022-09-09T02:15:01.149Z,82.5
2022-09-09T02:16:07.420Z,82.5
2022-09-09T02:17:13.690Z,82.5
2022-09-09T02:18:19.976Z,83
2022-09-09T02:19:26.234Z,83
2022-09-09T02:20:32.511Z,83.5
2022-09-09T02:21:37.796Z,83
2022-09-09T02:22:44.125Z,83.5
2022-09-09T02:23:50.340Z,83.5
2022-09-09T02:24:56.623Z,83.5
2022-09-09T02:26:02.885Z,83.5
2022-09-09T02:27:09.161Z,83.5
2022-09-09T02:28:15.434Z,83.5
2022-09-09T02:29:20.758Z,83.5
2022-09-09T02:30:26.024Z,83
2022-09-09T02:31:32.286Z,83
2022-09-09T02:32:37.626Z,83
2022-09-09T02:33:42.880Z,83
2022-09-09T02:34:49.164Z,83
2022-09-09T02:35:55.449Z,83.5
2022-09-09T02:37:01.694Z,83
2022-09-09T02:38:08.026Z,83.5
2022-09-09T02:39:14.286Z,83.5
2022-09-09T02:40:20.508Z,83
2022-09-09T02:41:26.780Z,83
2022-09-09T02:42:33.064Z,83
2022-09-09T02:43:39.361Z,83.5
2022-09-09T02:44:45.609Z,84
2022-09-09T02:45:51.877Z,84
2022-09-09T02:46:58.144Z,84.5
2022-09-09T02:48:03.444Z,84.5
2022-09-09T02:49:09.717Z,85.5
2022-09-09T02:50:16.019Z,85.5
2022-09-09T02:51:22.283Z,85.5
2022-09-09T02:52:28.516Z,86
2022-09-09T02:53:34.786Z,86.5
2022-09-09T02:54:41.081Z,86.5
2022-09-09T02:55:46.379Z,86.5
2022-09-09T02:56:51.653Z,86.5
2022-09-09T02:57:56.948Z,87
2022-09-09T02:59:02.239Z,86.5
2022-09-09T03:00:08.513Z,86
2022-09-09T03:01:14.787Z,86
2022-09-09T03:02:21.110Z,86
2022-09-09T03:03:27.338Z,86
2022-09-09T03:04:33.632Z,85.5
2022-09-09T03:05:39.907Z,85.5
2022-09-09T03:06:46.196Z,85.5
2022-09-09T03:07:52.414Z,85.5
2022-09-09T03:08:58.708Z,85.5
2022-09-09T03:10:04.969Z,85.5
2022-09-09T03:11:11.247Z,85.5
2022-09-09T03:12:17.503Z,85.5
2022-09-09T03:13:22.795Z,86
2022-09-09T03:14:29.087Z,85.5
2022-09-09T03:15:35.340Z,86
2022-09-09T03:16:41.620Z,86
2022-09-09T03:17:47.881Z,86
2022-09-09T03:18:54.154Z,86
2022-09-09T03:20:00.425Z,86
2022-09-09T03:21:05.723Z,86
2022-09-09T03:22:11.014Z,86
2022-09-09T03:23:16.314Z,85.5
2022-09-09T03:24:21.621Z,85.5
2022-09-09T03:25:27.873Z,85.5
2022-09-09T03:26:34.141Z,85.5
2022-09-09T03:27:40.470Z,85.5
2022-09-09T03:28:46.686Z,85.5
2022-09-09T03:29:52.965Z,85.5
2022-09-09T03:30:59.234Z,85.5
2022-09-09T03:32:05.507Z,85.5
2022-09-09T03:33:11.782Z,85
2022-09-09T03:34:18.053Z,85
2022-09-09T03:35:24.340Z,84.5
2022-09-09T03:36:30.616Z,84.5
2022-09-09T03:37:36.866Z,85
2022-09-09T03:38:42.154Z,84.5
2022-09-09T03:39:48.425Z,84.5
2022-09-09T03:40:54.706Z,84.5
2022-09-09T03:42:00.972Z,84.5
2022-09-09T03:43:07.248Z,84.5
2022-09-09T03:44:13.513Z,84.5
2022-09-09T03:45:19.800Z,85
2022-09-09T03:46:25.089Z,85
2022-09-09T03:47:30.375Z,85
2022-09-09T03:48:35.685Z,85
2022-09-09T03:49:40.965Z,85
2022-09-09T03:50:47.241Z,85
2022-09-09T03:51:53.507Z,85
2022-09-09T03:52:59.788Z,85
2022-09-09T03:54:06.048Z,85
2022-09-09T03:55:12.333Z,85.5
2022-09-09T03:56:18.606Z,85.5
2022-09-09T03:57:24.870Z,86
2022-09-09T03:58:31.156Z,87
2022-09-09T03:59:37.415Z,87.5
2022-09-09T04:00:43.683Z,88
2022-09-09T04:01:49.955Z,88.5
2022-09-09T04:02:56.231Z,88.5
2022-09-09T04:04:01.518Z,89
2022-09-09T04:05:07.813Z,89.5
2022-09-09T04:06:14.062Z,90
2022-09-09T04:07:20.337Z,88
2022-09-09T04:08:26.606Z,88.5
2022-09-09T04:09:32.873Z,88
2022-09-09T04:10:39.151Z,88.5
2022-09-09T04:11:45.441Z,88.5
2022-09-09T04:12:50.763Z,89.5
2022-09-09T04:13:56.022Z,90.5
2022-09-09T04:15:02.313Z,90
2022-09-09T04:16:08.555Z,90
2022-09-09T04:17:13.869Z,90
2022-09-09T04:18:19.153Z,89
2022-09-09T04:19:25.460Z,89
2022-09-09T04:20:31.689Z,89.5
2022-09-09T04:21:37.954Z,90
2022-09-09T04:22:44.252Z,89.5
2022-09-09T04:23:50.497Z,89.5
2022-09-09T04:24:56.800Z,90
2022-09-09T04:26:03.124Z,89.5
2022-09-09T04:27:09.340Z,89.5
2022-09-09T04:28:15.587Z,89
2022-09-09T04:29:21.865Z,89
2022-09-09T04:30:28.144Z,89
2022-09-09T04:31:34.414Z,89
2022-09-09T04:32:39.708Z,88
2022-09-09T04:33:46.063Z,89
2022-09-09T04:34:52.311Z,89
2022-09-09T04:35:58.510Z,89
2022-09-09T04:37:04.781Z,89.5
2022-09-09T04:38:11.088Z,90
2022-09-09T04:39:17.326Z,90.5
2022-09-09T04:40:22.622Z,90.5
2022-09-09T04:41:27.928Z,90.5
2022-09-09T04:42:33.216Z,91
2022-09-09T04:43:38.510Z,91
2022-09-09T04:44:44.780Z,92
2022-09-09T04:45:51.047Z,92
2022-09-09T04:46:57.322Z,92.5
2022-09-09T04:48:03.588Z,93
2022-09-09T04:49:09.861Z,92.5
2022-09-09T04:50:16.135Z,93.5
2022-09-09T04:51:22.430Z,93
2022-09-09T04:52:28.699Z,94
2022-09-09T04:53:34.952Z,95
2022-09-09T04:54:41.224Z,96
2022-09-09T04:55:47.492Z,96
2022-09-09T04:56:53.769Z,96
2022-09-09T04:57:59.053Z,96.5
2022-09-09T04:59:05.334Z,96.5
2022-09-09T05:00:11.599Z,97
2022-09-09T05:01:17.875Z,97
2022-09-09T05:02:24.149Z,96.5
2022-09-09T05:03:30.420Z,97
2022-09-09T05:04:36.714Z,97.5
2022-09-09T05:05:42.006Z,97.5
2022-09-09T05:06:47.279Z,97.5
2022-09-09T05:07:52.603Z,97
2022-09-09T05:08:57.861Z,97
2022-09-09T05:10:04.131Z,97.5
2022-09-09T05:11:10.405Z,97.5
2022-09-09T05:12:16.690Z,98
2022-09-09T05:13:22.951Z,98
2022-09-09T05:14:29.223Z,97.5
2022-09-09T05:15:35.494Z,97
2022-09-09T05:16:41.761Z,97
2022-09-09T05:17:48.054Z,96.5
2022-09-09T05:18:54.311Z,96
2022-09-09T05:20:00.586Z,96.5
2022-09-09T05:21:06.851Z,97
2022-09-09T05:22:13.127Z,96.5
2022-09-09T05:23:18.432Z,97
2022-09-09T05:24:24.698Z,97.5
2022-09-09T05:25:30.961Z,97.5
2022-09-09T05:26:37.234Z,98
2022-09-09T05:27:43.499Z,98
2022-09-09T05:28:49.789Z,98
2022-09-09T05:29:56.047Z,98
2022-09-09T05:31:01.350Z,98
2022-09-09T05:32:06.644Z,98
2022-09-09T05:33:12.936Z,98
2022-09-09T05:34:18.237Z,98
2022-09-09T05:35:23.506Z,98.5
2022-09-09T05:36:29.785Z,98.5
2022-09-09T05:37:36.046Z,98
2022-09-09T05:38:42.315Z,98
2022-09-09T05:39:48.609Z,97.5
2022-09-09T05:40:54.869Z,98
2022-09-09T05:42:01.137Z,97.5
2022-09-09T05:43:07.403Z,97.5
2022-09-09T05:44:13.708Z,97.5
2022-09-09T05:45:19.980Z,97
2022-09-09T05:46:26.226Z,97.5
2022-09-09T05:47:32.505Z,98
2022-09-09T05:48:38.770Z,98
2022-09-09T05:49:44.053Z,98
2022-09-09T05:50:50.321Z,97.5
2022-09-09T05:51:56.610Z,97.5
2022-09-09T05:53:02.873Z,97.5
2022-09-09T05:54:09.144Z,98
2022-09-09T05:55:15.423Z,98
2022-09-09T05:56:21.701Z,98
2022-09-09T05:57:26.998Z,98
2022-09-09T05:58:32.275Z,98
2022-09-09T05:59:38.582Z,98
2022-09-09T06:00:43.843Z,98
2022-09-09T06:01:49.130Z,98
2022-09-09T06:02:55.398Z,98
2022-09-09T06:04:01.720Z,98
2022-09-09T06:05:08.043Z,98
2022-09-09T06:06:14.218Z,98
2022-09-09T06:07:20.553Z,98
2022-09-09T06:08:26.773Z,98
2022-09-09T06:09:33.050Z,97.5
2022-09-09T06:10:39.302Z,96.5
2022-09-09T06:11:45.640Z,96.5
2022-09-09T06:12:51.870Z,96.5
2022-09-09T06:13:58.117Z,96.5
2022-09-09T06:15:04.399Z,96.5
2022-09-09T06:16:09.716Z,96.5
2022-09-09T06:17:15.974Z,96.5
2022-09-09T06:18:22.222Z,95.5
2022-09-09T06:19:28.514Z,95.5
2022-09-09T06:20:34.785Z,95.5
2022-09-09T06:21:41.061Z,95.5
2022-09-09T06:22:47.318Z,95.5
2022-09-09T06:23:52.628Z,95.5
2022-09-09T06:24:57.914Z,95.5
2022-09-09T06:26:04.212Z,95.5
2022-09-09T06:27:10.503Z,95.5
2022-09-09T06:28:16.718Z,95.5
2022-09-09T06:29:23.054Z,95.5
2022-09-09T06:30:29.259Z,95.5
2022-09-09T06:31:34.595Z,95.5
2022-09-09T06:32:39.857Z,95.5
2022-09-09T06:33:46.114Z,96
2022-09-09T06:34:52.401Z,96
2022-09-09T06:35:58.661Z,96
2022-09-09T06:37:04.950Z,95.5
2022-09-09T06:38:11.277Z,95.5
2022-09-09T06:39:17.484Z,95.5
2022-09-09T06:40:23.774Z,95
2022-09-09T06:41:30.057Z,95.5
2022-09-09T06:42:36.328Z,96
2022-09-09T06:43:42.567Z,96
2022-09-09T06:44:48.840Z,95
2022-09-09T06:45:55.115Z,95
2022-09-09T06:47:00.488Z,95
2022-09-09T06:48:06.747Z,96
2022-09-09T06:49:13.001Z,94
2022-09-09T06:50:19.261Z,94.5
2022-09-09T06:51:25.529Z,95
2022-09-09T06:52:31.772Z,94
2022-09-09T06:53:38.031Z,94.5
2022-09-09T06:54:43.327Z,95
2022-09-09T06:55:48.628Z,94.5
2022-09-09T06:56:54.894Z,94.5
2022-09-09T06:58:01.154Z,94
2022-09-09T06:59:07.439Z,94.5
2022-09-09T07:00:13.705Z,94.5
2022-09-09T07:01:19.980Z,94
2022-09-09T07:02:25.273Z,94.5
2022-09-09T07:03:30.558Z,94
2022-09-09T07:04:36.840Z,94
2022-09-09T07:05:43.105Z,94.5
2022-09-09T07:06:49.382Z,93.5
2022-09-09T07:07:55.645Z,94
2022-09-09T07:09:01.928Z,93
2022-09-09T07:10:08.190Z,93
2022-09-09T07:11:14.488Z,93
2022-09-09T07:12:20.729Z,93.5
2022-09-09T07:13:27.027Z,94.5
2022-09-09T07:14:33.286Z,95
2022-09-09T07:15:39.585Z,95.5
2022-09-09T07:16:45.851Z,94.5
2022-09-09T07:17:51.109Z,93.5
2022-09-09T07:18:57.442Z,94
2022-09-09T07:20:03.696Z,93
2022-09-09T07:21:09.992Z,93.5
2022-09-09T07:22:16.205Z,93
2022-09-09T07:23:22.473Z,93
2022-09-09T07:24:28.799Z,92
2022-09-09T07:25:35.022Z,92
2022-09-09T07:26:40.312Z,92
2022-09-09T07:27:45.606Z,90.5
2022-09-09T07:28:51.893Z,90.5
2022-09-09T07:29:57.199Z,90.5
2022-09-09T07:31:02.463Z,91.5
2022-09-09T07:32:08.743Z,90
2022-09-09T07:33:15.014Z,91
2022-09-09T07:34:21.289Z,90.5
2022-09-09T07:35:27.562Z,90.5
2022-09-09T07:36:33.825Z,91
2022-09-09T07:37:40.145Z,91
2022-09-09T07:38:46.363Z,91
2022-09-09T07:39:52.689Z,91.5
2022-09-09T07:40:58.919Z,90
2022-09-09T07:42:05.189Z,89.5
2022-09-09T07:43:11.492Z,89.5
2022-09-09T07:44:17.741Z,91
2022-09-09T07:45:23.007Z,91.5
2022-09-09T07:46:29.290Z,91
2022-09-09T07:47:35.584Z,90
2022-09-09T07:48:41.870Z,90
2022-09-09T07:49:48.102Z,88
2022-09-09T07:50:54.389Z,87.5
2022-09-09T07:52:00.780Z,87.5
2022-09-09T07:53:06.023Z,89.5
2022-09-09T07:54:11.281Z,88.5
2022-09-09T07:55:16.574Z,87.5
2022-09-09T07:57:28.094Z,87.5
2022-09-09T07:58:34.415Z,89
2022-09-09T07:59:40.700Z,89.5
2022-09-09T08:00:46.928Z,89.5
2022-09-09T08:01:53.241Z,90.5
2022-09-09T08:02:59.463Z,88
2022-09-09T08:04:05.834Z,88
2022-09-09T08:05:12.029Z,89
2022-09-09T08:06:18.303Z,88
2022-09-09T08:07:24.548Z,87.5
2022-09-09T08:08:30.810Z,87.5
2022-09-09T08:09:37.119Z,89
2022-09-09T08:10:42.385Z,88
2022-09-09T08:11:48.690Z,87.5
2022-09-09T08:12:54.916Z,87.5
2022-09-09T08:14:01.236Z,86
2022-09-09T08:15:07.463Z,87
2022-09-09T08:16:13.745Z,87.5
2022-09-09T08:17:19.997Z,87
2022-09-09T08:18:26.282Z,85.5
2022-09-09T08:19:32.562Z,86
2022-09-09T08:20:38.825Z,86
2022-09-09T08:21:45.143Z,88
2022-09-09T08:22:51.360Z,87
2022-09-09T08:23:57.639Z,85.5
2022-09-09T08:25:02.916Z,87
2022-09-09T08:26:09.205Z,86
2022-09-09T08:27:15.468Z,86.5
2022-09-09T08:28:21.762Z,86.5
2022-09-09T08:29:28.077Z,87
2022-09-09T08:30:34.287Z,85.5
2022-09-09T08:31:40.557Z,85.5
2022-09-09T08:32:46.833Z,85.5
2022-09-09T08:33:53.151Z,85.5
2022-09-09T08:34:59.408Z,85.5
2022-09-09T08:36:05.643Z,84.5
2022-09-09T08:37:11.967Z,84.5
2022-09-09T08:38:18.214Z,83.5
2022-09-09T08:39:23.471Z,86.5
2022-09-09T08:40:29.806Z,84
2022-09-09T08:41:36.026Z,83.5
2022-09-09T08:42:42.313Z,85
2022-09-09T08:43:48.573Z,84
2022-09-09T08:44:54.843Z,82
2022-09-09T08:46:01.106Z,82.5
2022-09-09T08:47:07.382Z,83
2022-09-09T08:48:13.679Z,84
2022-09-09T08:49:18.950Z,83.5
2022-09-09T08:50:24.245Z,81.5
2022-09-09T08:51:30.509Z,83.5
2022-09-09T08:52:35.904Z,82.5
2022-09-09T08:53:41.143Z,84
2022-09-09T08:54:47.389Z,84.5
2022-09-09T08:55:53.703Z,83
2022-09-09T08:56:59.911Z,83.5
2022-09-09T08:58:06.193Z,84.5
2022-09-09T08:59:12.514Z,83
2022-09-09T09:00:18.752Z,81.5
2022-09-09T09:01:24.999Z,82.5
2022-09-09T09:02:31.308Z,82.5
2022-09-09T09:03:37.581Z,84.5
2022-09-09T09:04:43.845Z,80.5
2022-09-09T09:05:50.135Z,82.5
2022-09-09T09:06:56.367Z,84.5
2022-09-09T09:08:01.645Z,81
2022-09-09T09:09:08.021Z,80.5
2022-09-09T09:10:14.260Z,80.5
2022-09-09T09:11:20.470Z,80
2022-09-09T09:12:26.769Z,79
2022-09-09T09:13:33.008Z,79
2022-09-09T09:14:39.350Z,79
2022-09-09T09:15:44.594Z,78.5
2022-09-09T09:16:49.972Z,78.5
2022-09-09T09:17:56.230Z,78
2022-09-09T09:19:02.421Z,78.5
2022-09-09T09:20:07.726Z,79
2022-09-09T09:21:13.030Z,78.5
2022-09-09T09:22:19.285Z,77
2022-09-09T09:23:25.588Z,77.5
2022-09-09T09:24:31.870Z,77
2022-09-09T09:25:38.136Z,78
2022-09-09T09:26:44.410Z,77.5
2022-09-09T09:27:50.772Z,76.5
2022-09-09T09:28:56.919Z,78
2022-09-09T09:30:03.286Z,77.5
2022-09-09T09:31:09.476Z,77
2022-09-09T09:32:15.777Z,78.5
2022-09-09T09:33:22.057Z,78
2022-09-09T09:34:28.396Z,78.5
2022-09-09T09:35:34.552Z,78
2022-09-09T09:36:39.831Z,80
2022-09-09T09:37:46.139Z,82
2022-09-09T09:38:52.383Z,78.5
2022-09-09T09:39:58.648Z,79
2022-09-09T09:41:04.925Z,77
2022-09-09T09:42:11.286Z,75.5
2022-09-09T09:43:17.496Z,76.5
2022-09-09T09:44:23.755Z,75
2022-09-09T09:45:30.071Z,79
2022-09-09T09:46:36.285Z,77
2022-09-09T09:47:42.553Z,75.5
2022-09-09T09:48:48.835Z,77
2022-09-09T09:49:55.177Z,76
2022-09-09T09:51:00.438Z,77
2022-09-09T09:52:06.658Z,72.5
2022-09-09T09:53:12.927Z,73
2022-09-09T09:54:19.279Z,73.5
2022-09-09T09:55:25.551Z,73
2022-09-09T09:56:31.808Z,71.5
2022-09-09T09:57:38.020Z,71
2022-09-09T09:58:44.296Z,72.5
2022-09-09T09:59:49.626Z,73
2022-09-09T10:00:54.884Z,69.5
2022-09-09T10:02:01.167Z,71
2022-09-09T10:03:07.467Z,74.5
2022-09-09T10:04:12.797Z,67.5
2022-09-09T10:05:18.017Z,72.5
2022-09-09T10:06:24.284Z,67.5
2022-09-09T10:07:30.554Z,68.5
2022-09-09T10:08:36.834Z,70
2022-09-09T10:09:43.107Z,70
2022-09-09T10:10:49.368Z,69.5
2022-09-09T10:11:55.640Z,69.5
2022-09-09T10:13:01.953Z,68.5
2022-09-09T10:14:08.186Z,70
2022-09-09T10:15:14.499Z,67
2022-09-09T10:16:20.728Z,69.5
2022-09-09T10:17:27.046Z,70
2022-09-09T10:18:33.311Z,69.5
2022-09-09T10:19:38.665Z,65
2022-09-09T10:20:44.829Z,64.5
2022-09-09T10:21:51.106Z,68
2022-09-09T10:22:57.371Z,64.5
2022-09-09T10:24:03.720Z,65
2022-09-09T10:25:09.974Z,64.5
2022-09-09T10:26:16.260Z,62
2022-09-09T10:27:22.476Z,67
2022-09-09T10:28:28.741Z,63.5
2022-09-09T10:29:35.053Z,63
2022-09-09T10:30:41.277Z,63
2022-09-09T10:31:47.580Z,66.5
2022-09-09T10:32:53.843Z,64
2022-09-09T10:33:59.121Z,64.5
2022-09-09T10:35:05.398Z,63.5
2022-09-09T10:36:11.659Z,65.5
2022-09-09T10:37:17.927Z,62.5
2022-09-09T10:38:24.212Z,65
2022-09-09T10:39:30.477Z,64
2022-09-09T10:40:36.787Z,62
2022-09-09T10:41:43.123Z,62.5
2022-09-09T10:42:49.355Z,63
2022-09-09T10:43:55.575Z,64.5
2022-09-09T10:45:01.850Z,65.5
2022-09-09T10:46:08.115Z,62.5
2022-09-09T10:47:14.435Z,62
2022-09-09T10:48:19.681Z,62
2022-09-09T10:49:24.994Z,62
2022-09-09T10:50:31.249Z,60.5
2022-09-09T10:51:37.536Z,60.5
2022-09-09T10:52:43.841Z,60.5
2022-09-09T10:53:50.053Z,60.5
2022-09-09T10:54:55.380Z,63.5
2022-09-09T10:56:00.644Z,64.5
2022-09-09T10:57:06.912Z,60
2022-09-09T10:58:13.234Z,59
2022-09-09T10:59:19.509Z,59
2022-09-09T11:00:25.732Z,59
2022-09-09T11:01:32.011Z,58
2022-09-09T11:02:38.270Z,57.5
2022-09-09T11:03:44.547Z,57
2022-09-09T11:04:50.817Z,59
2022-09-09T11:05:57.084Z,56
2022-09-09T11:07:03.411Z,54.5
2022-09-09T11:08:09.638Z,58.5
2022-09-09T11:09:15.929Z,57.5
2022-09-09T11:10:22.181Z,54.5
2022-09-09T11:11:28.450Z,54
2022-09-09T11:12:34.726Z,54.5
2022-09-09T11:13:40.008Z,54
2022-09-09T11:14:46.290Z,53.5
2022-09-09T11:15:52.564Z,55
2022-09-09T11:16:58.835Z,55.5
2022-09-09T11:18:05.103Z,55
2022-09-09T11:19:11.393Z,54
2022-09-09T11:20:17.652Z,55.5
2022-09-09T11:21:22.945Z,55.5
2022-09-09T11:22:28.237Z,59.5
2022-09-09T11:23:33.597Z,60
2022-09-09T11:24:39.817Z,55
2022-09-09T11:25:45.239Z,56
2022-09-09T11:26:51.398Z,57
2022-09-09T11:27:57.706Z,59
2022-09-09T11:29:03.973Z,52.5
2022-09-09T11:30:10.176Z,53.5
2022-09-09T11:31:16.566Z,53
2022-09-09T11:32:22.752Z,53
2022-09-09T11:33:29.028Z,51.5
2022-09-09T11:34:35.317Z,53.5
2022-09-09T11:35:41.644Z,53
2022-09-09T11:36:47.934Z,52.5
2022-09-09T11:37:54.090Z,56.5
2022-09-09T11:39:00.360Z,53.5
2022-09-09T11:40:05.642Z,55.5
2022-09-09T11:41:12.033Z,51
2022-09-09T11:42:18.212Z,53.5
2022-09-09T11:43:24.534Z,54
2022-09-09T11:44:30.849Z,55
2022-09-09T11:45:37.036Z,52
2022-09-09T11:46:43.328Z,55
2022-09-09T11:47:49.665Z,57
2022-09-09T11:48:55.968Z,53.5
2022-09-09T11:50:02.238Z,53.5
2022-09-09T11:51:08.533Z,56
2022-09-09T11:52:14.791Z,57
2022-09-09T11:53:21.051Z,58
2022-09-09T11:54:26.345Z,58
2022-09-09T11:55:32.617Z,53
2022-09-09T11:56:38.882Z,56
2022-09-09T11:57:45.163Z,55
2022-09-09T11:58:50.471Z,53
2022-09-09T11:59:55.722Z,58
2022-09-09T12:01:01.038Z,52.5
2022-09-09T12:02:06.198Z,55.5
2022-09-09T12:03:12.564Z,54
2022-09-09T12:04:18.900Z,54.5
2022-09-09T12:05:25.159Z,50.5
2022-09-09T12:06:31.444Z,57
2022-09-09T12:07:37.703Z,52
2022-09-09T12:08:43.959Z,54.5
2022-09-09T12:09:50.238Z,52
2022-09-09T12:10:56.516Z,54.5
2022-09-09T12:12:02.789Z,57
2022-09-09T12:13:09.076Z,57
2022-09-09T12:14:15.295Z,54.5
2022-09-09T12:15:21.617Z,51
2022-09-09T12:16:27.873Z,50
2022-09-09T12:17:33.184Z,54.5
2022-09-09T12:18:39.453Z,52.5
2022-09-09T12:19:45.566Z,53.5
2022-09-09T12:20:51.878Z,50.5
2022-09-09T12:21:58.264Z,50
2022-09-09T12:23:04.512Z,49
2022-09-09T12:24:09.835Z,53
2022-09-09T12:25:15.113Z,49
2022-09-09T12:26:21.413Z,50.5
2022-09-09T12:27:27.611Z,48.5
2022-09-09T12:28:33.929Z,50
2022-09-09T12:29:40.222Z,50
2022-09-09T12:30:46.458Z,52
2022-09-09T12:31:52.728Z,52
2022-09-09T12:32:58.888Z,49.5
2022-09-09T12:34:05.287Z,51.5
2022-09-09T12:35:11.563Z,48.5
2022-09-09T12:36:17.840Z,49
2022-09-09T12:37:23.131Z,49.5
2022-09-09T12:38:28.297Z,49.5
2022-09-09T12:39:34.704Z,51.5
2022-09-09T12:40:40.978Z,49.5
2022-09-09T12:41:47.259Z,49
2022-09-09T12:42:53.504Z,49
2022-09-09T12:43:59.772Z,49.5
2022-09-09T12:45:06.031Z,48
2022-09-09T12:46:12.313Z,48
2022-09-09T12:47:18.598Z,48
2022-09-09T12:48:24.839Z,50
2022-09-09T12:49:31.142Z,47.5
2022-09-09T12:50:37.400Z,47.5
2022-09-09T12:51:43.675Z,49
2022-09-09T12:52:48.980Z,48
2022-09-09T12:53:55.260Z,48
2022-09-09T12:55:01.519Z,49
2022-09-09T12:56:07.792Z,49
2022-09-09T12:57:12.955Z,49
2022-09-09T12:58:19.352Z,49.5
2022-09-09T12:59:25.634Z,49
2022-09-09T13:00:30.943Z,49.5
2022-09-09T13:01:37.073Z,50
2022-09-09T13:02:42.499Z,50.5
2022-09-09T13:03:48.762Z,51
2022-09-09T13:04:55.037Z,51.5
2022-09-09T13:06:01.316Z,52
2022-09-09T13:07:07.584Z,52
2022-09-09T13:08:13.854Z,52.5
2022-09-09T13:09:20.122Z,52
2022-09-09T13:10:26.351Z,53.5
2022-09-09T13:11:32.682Z,51.5
2022-09-09T13:12:38.936Z,52.5
2022-09-09T13:13:45.071Z,53
2022-09-09T13:14:51.465Z,52.5
2022-09-09T13:15:57.618Z,52.5
2022-09-09T13:17:03.059Z,52.5
2022-09-09T13:18:09.183Z,52
2022-09-09T13:20:21.865Z,52.5
2022-09-09T13:21:28.141Z,52.5
2022-09-09T13:22:34.418Z,52.5
2022-09-09T13:23:39.592Z,52.5
2022-09-09T13:24:45.969Z,52.5
2022-09-09T13:25:51.235Z,51.5
2022-09-09T13:26:57.563Z,51.5
2022-09-09T13:28:03.755Z,52
2022-09-09T13:29:10.053Z,51.5
2022-09-09T13:30:16.355Z,52
2022-09-09T13:31:22.668Z,52
2022-09-09T13:32:28.891Z,51.5
2022-09-09T13:33:35.161Z,51
2022-09-09T13:34:41.446Z,51.5
2022-09-09T13:35:47.738Z,54.5
2022-09-09T13:36:53.997Z,51.5
2022-09-09T13:38:00.269Z,50.5
2022-09-09T13:39:06.534Z,49.5
2022-09-09T13:40:11.830Z,48.5
2022-09-09T13:41:18.106Z,49
2022-09-09T13:42:24.243Z,49.5
2022-09-09T13:43:30.504Z,49.5
2022-09-09T13:44:36.916Z,49.5
2022-09-09T13:45:43.050Z,51.5
2022-09-09T13:46:49.462Z,50
2022-09-09T13:47:55.733Z,49
2022-09-09T13:49:02.014Z,49
2022-09-09T13:50:08.130Z,49
2022-09-09T13:51:14.518Z,51
2022-09-09T13:52:20.827Z,48.5
2022-09-09T13:53:26.953Z,48
2022-09-09T13:54:32.378Z,47.5
2022-09-09T13:55:38.659Z,46
2022-09-09T13:56:44.930Z,48.5
2022-09-09T13:57:51.198Z,47.5
2022-09-09T13:58:57.455Z,46.5
2022-09-09T14:00:03.747Z,46
2022-09-09T14:01:09.877Z,45.5
2022-09-09T14:02:16.147Z,45.5
2022-09-09T14:03:22.564Z,45.5
2022-09-09T14:04:28.819Z,45
2022-09-09T14:05:35.112Z,47.5
2022-09-09T14:06:41.343Z,46.5
2022-09-09T14:07:47.653Z,44.5
2022-09-09T14:08:52.949Z,44.5
2022-09-09T14:09:59.069Z,45
2022-09-09T14:11:05.494Z,48
2022-09-09T14:12:11.736Z,46
2022-09-09T14:13:18.043Z,45.5
2022-09-09T14:14:24.302Z,49
2022-09-09T14:15:30.531Z,46.5
2022-09-09T14:16:36.857Z,48.5
2022-09-09T14:17:43.142Z,46
2022-09-09T14:18:49.390Z,49
2022-09-09T14:19:55.606Z,51.5
2022-09-09T14:21:01.931Z,47
2022-09-09T14:22:08.188Z,47
2022-09-09T14:23:13.525Z,47
2022-09-09T14:24:19.625Z,48
2022-09-09T14:25:26.042Z,47
2022-09-09T14:26:32.263Z,47
2022-09-09T14:27:38.588Z,48.5
2022-09-09T14:28:44.771Z,49
2022-09-09T14:29:50.986Z,47
2022-09-09T14:30:57.410Z,47.5
2022-09-09T14:32:03.673Z,48
2022-09-09T14:33:09.816Z,49
2022-09-09T14:34:16.224Z,50
2022-09-09T14:35:22.494Z,50
2022-09-09T14:36:28.758Z,48.5
2022-09-09T14:37:34.060Z,48.5
2022-09-09T14:38:40.297Z,49.5
2022-09-09T14:39:46.472Z,49
2022-09-09T14:40:52.885Z,50
2022-09-09T14:41:59.125Z,50.5
2022-09-09T14:43:05.405Z,50
2022-09-09T14:44:11.649Z,50
2022-09-09T14:45:17.961Z,49
2022-09-09T14:46:23.266Z,48
2022-09-09T14:47:28.628Z,48
2022-09-09T14:48:34.789Z,51
2022-09-09T14:49:40.130Z,49.5
2022-09-09T14:50:45.377Z,49
2022-09-09T14:51:51.672Z,49
2022-09-09T14:52:57.814Z,48
2022-09-09T14:54:04.217Z,46
2022-09-09T14:55:10.499Z,47
2022-09-09T14:56:16.778Z,49
2022-09-09T14:57:22.939Z,48
2022-09-09T14:58:29.302Z,50.5
2022-09-09T14:59:35.581Z,51
2022-09-09T15:00:41.864Z,48.5
2022-09-09T15:01:47.987Z,47.5
2022-09-09T15:02:54.394Z,49.5
2022-09-09T15:04:00.597Z,49
2022-09-09T15:05:05.976Z,48.5
2022-09-09T15:06:12.221Z,47.5
2022-09-09T15:07:18.507Z,49.5
2022-09-09T15:08:24.637Z,50
2022-09-09T15:09:31.047Z,49
2022-09-09T15:10:37.349Z,48
2022-09-09T15:11:43.588Z,49
2022-09-09T15:12:48.906Z,48.5